Time;durP1;ratioP1;P1;durP2;ratioP2;P2;SDS_P1;SDS_P2;PMS_P1;PMS_P2;Temp;Humidity;BMP_temperature;BMP_pressure;BME280_temperature;BME280_humidity;BME280_pressure;Samples;Min_cycle;Max_cycle;Signal;HPM_P1;HPM_P2
2022/08/17 00:01:04;;;;;;;6.75;3.53;;;;;;;;;;5052148;28;20032;-77
2022/08/17 00:03:31;;;;;;;4.88;3.35;;;;;;;;;;5053154;28;20013;-79
2022/08/17 00:06:11;;;;;;;8.30;3.50;;;;;;;;;;5054887;28;20048;-82
2022/08/17 00:08:39;;;;;;;9.43;3.75;;;;;;;;;;5052131;28;20048;-79
2022/08/17 00:11:06;;;;;;;10.82;3.67;;;;;;;;;;5053054;28;20028;-82
2022/08/17 00:13:52;;;;;;;5.85;3.60;;;;;;;;;;5052122;28;20025;-80
2022/08/17 00:16:21;;;;;;;7.28;3.72;;;;;;;;;;5045645;28;20047;-77
2022/08/17 00:18:47;;;;;;;4.93;3.60;;;;;;;;;;5050444;28;20029;-80
2022/08/17 00:21:15;;;;;;;9.02;3.63;;;;;;;;;;5054423;28;20033;-69
2022/08/17 00:23:42;;;;;;;4.55;3.35;;;;;;;;;;5052104;28;20107;-76
2022/08/17 00:26:09;;;;;;;5.47;3.50;;;;;;;;;;5057992;28;20059;-68
2022/08/17 00:28:35;;;;;;;9.25;3.80;;;;;;;;;;5051346;28;20033;-74
2022/08/17 00:31:01;;;;;;;5.32;3.67;;;;;;;;;;5052498;28;20013;-82
2022/08/17 00:33:32;;;;;;;5.05;3.63;;;;;;;;;;5055157;28;20040;-83
2022/08/17 00:35:59;;;;;;;4.65;3.60;;;;;;;;;;5053987;28;20045;-73
2022/08/17 00:38:26;;;;;;;8.50;3.70;;;;;;;;;;5051627;28;20465;-82
2022/08/17 00:40:53;;;;;;;5.07;3.90;;;;;;;;;;5052356;28;20021;-76
2022/08/17 00:46:33;;;;;;;3.85;3.10;;;;;;;;;;5259846;22;20063;-81
2022/08/17 00:48:59;;;;;;;5.60;3.80;;;;;;;;;;4974722;28;20038;-81
2022/08/17 00:51:31;;;;;;;8.30;3.83;;;;;;;;;;4992930;28;20617;-70
2022/08/17 00:53:59;;;;;;;6.40;3.53;;;;;;;;;;4993095;28;20033;-70
2022/08/17 00:56:31;;;;;;;5.75;3.60;;;;;;;;;;4988863;28;20066;-70
2022/08/17 00:58:57;;;;;;;7.32;3.80;;;;;;;;;;4981836;28;20893;-73
2022/08/17 01:01:24;;;;;;;6.25;3.83;;;;;;;;;;4986877;28;20109;-69
2022/08/17 01:03:51;;;;;;;5.68;3.17;;;;;;;;;;4991598;28;20034;-70
2022/08/17 01:06:17;;;;;;;4.45;3.78;;;;;;;;;;4992164;28;20097;-70
2022/08/17 01:08:43;;;;;;;11.60;3.60;;;;;;;;;;4992342;28;20038;-80
2022/08/17 01:11:09;;;;;;;8.10;3.45;;;;;;;;;;4992761;28;20110;-69
2022/08/17 01:13:40;;;;;;;5.57;3.90;;;;;;;;;;4992819;28;20496;-73
2022/08/17 01:16:14;;;;;;;5.85;3.92;;;;;;;;;;4990709;28;20090;-73
2022/08/17 01:18:41;;;;;;;5.32;3.65;;;;;;;;;;4994267;28;20494;-70
2022/08/17 01:21:10;;;;;;;5.88;3.70;;;;;;;;;;4996094;28;20468;-73
2022/08/17 01:23:37;;;;;;;6.68;3.88;;;;;;;;;;4994887;28;20089;-70
2022/08/17 01:26:05;;;;;;;5.70;3.65;;;;;;;;;;4978209;28;20459;-80
2022/08/17 01:28:32;;;;;;;6.35;3.55;;;;;;;;;;4994662;28;20484;-70
2022/08/17 01:31:00;;;;;;;6.63;3.63;;;;;;;;;;4996210;28;20034;-80
2022/08/17 01:33:27;;;;;;;6.38;3.63;;;;;;;;;;4995906;28;20034;-77
2022/08/17 01:35:53;;;;;;;5.88;3.85;;;;;;;;;;4994982;28;20121;-69
2022/08/17 01:38:19;;;;;;;8.10;3.80;;;;;;;;;;4977900;28;20045;-80
2022/08/17 01:40:56;;;;;;;8.00;4.05;;;;;;;;;;4993871;28;20031;-71
2022/08/17 01:43:26;;;;;;;6.30;3.97;;;;;;;;;;4976645;28;20046;-69
2022/08/17 01:45:54;;;;;;;5.57;3.55;;;;;;;;;;4995918;28;20487;-69
2022/08/17 01:48:20;;;;;;;5.22;3.60;;;;;;;;;;5005559;28;20057;-76
2022/08/17 01:50:47;;;;;;;6.03;3.72;;;;;;;;;;5006030;28;20109;-70
2022/08/17 01:53:16;;;;;;;5.60;3.83;;;;;;;;;;5009507;28;20476;-80
2022/08/17 01:55:47;;;;;;;5.15;3.53;;;;;;;;;;5008697;28;20034;-70
2022/08/17 01:58:13;;;;;;;6.38;4.10;;;;;;;;;;4992855;28;20030;-71
2022/08/17 02:00:41;;;;;;;5.57;4.10;;;;;;;;;;5006014;28;20037;-69
2022/08/17 02:03:07;;;;;;;5.18;3.90;;;;;;;;;;4998374;28;20483;-78
2022/08/17 02:05:34;;;;;;;7.70;3.88;;;;;;;;;;5015686;28;20041;-69
2022/08/17 02:08:00;;;;;;;5.10;3.38;;;;;;;;;;5015512;28;20527;-77
2022/08/17 02:10:27;;;;;;;7.43;3.90;;;;;;;;;;5004484;28;20039;-79
2022/08/17 02:12:53;;;;;;;5.10;3.70;;;;;;;;;;4996405;28;20031;-69
2022/08/17 02:15:19;;;;;;;6.78;4.03;;;;;;;;;;4994056;28;20030;-69
2022/08/17 02:17:46;;;;;;;6.35;3.83;;;;;;;;;;4999148;28;20042;-70
2022/08/17 02:20:12;;;;;;;7.10;3.70;;;;;;;;;;4993829;28;20018;-69
2022/08/17 02:22:39;;;;;;;9.68;3.92;;;;;;;;;;4997207;28;20026;-80
2022/08/17 02:25:08;;;;;;;7.35;4.20;;;;;;;;;;5008118;28;21968;-79
2022/08/17 02:27:35;;;;;;;5.00;3.50;;;;;;;;;;5006314;28;20050;-72
2022/08/17 02:30:01;;;;;;;9.20;5.35;;;;;;;;;;4999825;28;20395;-70
2022/08/17 02:32:28;;;;;;;45.25;34.42;;;;;;;;;;5005758;28;20030;-69
2022/08/17 02:34:54;;;;;;;40.70;28.27;;;;;;;;;;4992825;28;20042;-68
2022/08/17 02:37:20;;;;;;;15.50;11.38;;;;;;;;;;5014978;28;20026;-80
2022/08/17 02:39:46;;;;;;;12.70;5.82;;;;;;;;;;5000504;28;20057;-69
2022/08/17 02:42:13;;;;;;;7.57;4.60;;;;;;;;;;5005218;28;20030;-69
2022/08/17 02:44:40;;;;;;;7.88;4.20;;;;;;;;;;4992979;28;20101;-69
2022/08/17 02:47:07;;;;;;;6.13;4.28;;;;;;;;;;4995836;28;20042;-80
2022/08/17 02:49:33;;;;;;;5.03;3.70;;;;;;;;;;4994286;28;20384;-69
2022/08/17 02:52:02;;;;;;;6.85;3.83;;;;;;;;;;4994971;28;20361;-69
2022/08/17 02:54:28;;;;;;;6.93;4.05;;;;;;;;;;4993288;28;20054;-69
2022/08/17 02:56:54;;;;;;;6.82;4.10;;;;;;;;;;4994930;28;20042;-68
2022/08/17 02:59:20;;;;;;;8.05;4.40;;;;;;;;;;4994832;28;20035;-69
2022/08/17 03:01:46;;;;;;;7.95;3.90;;;;;;;;;;4992310;28;20027;-68
2022/08/17 03:04:12;;;;;;;7.72;4.07;;;;;;;;;;4993340;28;20038;-71
2022/08/17 03:06:38;;;;;;;9.23;3.72;;;;;;;;;;4994364;28;20543;-69
2022/08/17 03:09:04;;;;;;;8.27;3.92;;;;;;;;;;4994044;28;20041;-72
2022/08/17 03:11:30;;;;;;;6.43;4.05;;;;;;;;;;4994538;28;20022;-72
2022/08/17 03:13:57;;;;;;;7.65;4.22;;;;;;;;;;4992091;28;20062;-69
2022/08/17 03:16:23;;;;;;;7.13;3.90;;;;;;;;;;4994006;28;20033;-71
2022/08/17 03:18:49;;;;;;;10.20;4.03;;;;;;;;;;4994254;28;20099;-78
2022/08/17 03:21:15;;;;;;;11.45;4.28;;;;;;;;;;4993052;28;20493;-80
2022/08/17 03:23:41;;;;;;;9.00;4.68;;;;;;;;;;4994366;28;20010;-73
2022/08/17 03:26:09;;;;;;;6.72;3.90;;;;;;;;;;4992185;28;20026;-69
2022/08/17 03:28:35;;;;;;;7.35;4.65;;;;;;;;;;4992982;28;20033;-71
2022/08/17 03:31:01;;;;;;;10.48;4.18;;;;;;;;;;4994291;28;20019;-80
2022/08/17 03:33:28;;;;;;;7.60;3.90;;;;;;;;;;4994192;28;20109;-79
2022/08/17 03:35:54;;;;;;;8.60;4.35;;;;;;;;;;4995423;28;20042;-80
2022/08/17 03:38:20;;;;;;;11.07;4.40;;;;;;;;;;4993326;28;20038;-78
2022/08/17 03:40:48;;;;;;;12.80;4.35;;;;;;;;;;4993474;28;20018;-69
2022/08/17 03:43:14;;;;;;;7.28;4.32;;;;;;;;;;4991734;28;20427;-76
2022/08/17 03:56:50;;;;;;;8.50;4.50;;;;;;;;;;4985037;28;20119;-78
2022/08/17 03:59:19;;;;;;;12.55;4.78;;;;;;;;;;4993192;28;20022;-78
2022/08/17 04:01:46;;;;;;;14.05;4.38;;;;;;;;;;4991212;28;20034;-80
2022/08/17 04:04:13;;;;;;;11.50;4.35;;;;;;;;;;4993849;28;20025;-70
2022/08/17 04:06:40;;;;;;;7.35;4.32;;;;;;;;;;5000964;28;20033;-75
2022/08/17 04:09:06;;;;;;;7.53;4.53;;;;;;;;;;4995716;28;20106;-79
2022/08/17 04:11:32;;;;;;;8.90;4.10;;;;;;;;;;4993176;28;20026;-72
2022/08/17 04:13:58;;;;;;;8.77;4.78;;;;;;;;;;4992032;28;20026;-79
2022/08/17 04:16:25;;;;;;;10.50;4.25;;;;;;;;;;4997338;28;20493;-79
2022/08/17 04:18:52;;;;;;;7.32;4.53;;;;;;;;;;4994864;28;20038;-73
2022/08/17 04:21:18;;;;;;;14.35;4.50;;;;;;;;;;4982057;28;20085;-70
2022/08/17 04:23:44;;;;;;;10.63;4.28;;;;;;;;;;4991656;28;20018;-74
2022/08/17 04:26:11;;;;;;;13.38;4.72;;;;;;;;;;4992545;28;20068;-81
2022/08/17 04:28:37;;;;;;;13.13;4.18;;;;;;;;;;5007677;28;20021;-68
2022/08/17 04:31:03;;;;;;;6.55;3.90;;;;;;;;;;4974561;28;20073;-75
2022/08/17 04:33:29;;;;;;;8.02;4.13;;;;;;;;;;4992134;28;20029;-73
2022/08/17 04:36:00;;;;;;;9.05;4.30;;;;;;;;;;4991883;28;20066;-70
2022/08/17 04:38:28;;;;;;;10.45;4.47;;;;;;;;;;4991873;28;20494;-80
2022/08/17 04:43:41;;;;;;;9.52;4.97;;;;;;;;;;4985103;28;20057;-66
2022/08/17 04:46:08;;;;;;;9.80;4.55;;;;;;;;;;4994760;28;20034;-71
2022/08/17 04:48:36;;;;;;;8.05;4.18;;;;;;;;;;4998390;28;20046;-69
2022/08/17 04:51:03;;;;;;;6.22;4.07;;;;;;;;;;4976127;28;20496;-77
2022/08/17 04:53:29;;;;;;;7.50;4.20;;;;;;;;;;4997054;28;20109;-77
2022/08/17 04:55:57;;;;;;;11.52;4.53;;;;;;;;;;4997674;28;20380;-70
2022/08/17 04:58:23;;;;;;;9.98;4.63;;;;;;;;;;5002145;28;20424;-76
2022/08/17 05:00:49;;;;;;;10.70;4.65;;;;;;;;;;4990661;28;20447;-72
2022/08/17 05:03:15;;;;;;;6.22;3.95;;;;;;;;;;4969788;28;20138;-71
2022/08/17 05:05:48;;;;;;;8.32;3.80;;;;;;;;;;4993328;28;20026;-79
2022/08/17 05:08:15;;;;;;;9.13;4.40;;;;;;;;;;4963390;28;20404;-75
2022/08/17 05:10:41;;;;;;;9.25;4.50;;;;;;;;;;4993254;28;20102;-73
2022/08/17 05:13:14;;;;;;;5.95;4.47;;;;;;;;;;4992225;28;20173;-76
2022/08/17 05:15:41;;;;;;;7.72;4.57;;;;;;;;;;4988674;28;20034;-72
2022/08/17 05:18:07;;;;;;;11.30;5.00;;;;;;;;;;4992037;28;20066;-83
2022/08/17 05:20:34;;;;;;;7.50;4.40;;;;;;;;;;4992960;28;20044;-73
2022/08/17 05:23:08;;;;;;;7.13;4.13;;;;;;;;;;4992780;28;20034;-74
2022/08/17 05:25:40;;;;;;;6.43;4.25;;;;;;;;;;4987596;28;20030;-81
2022/08/17 05:28:07;;;;;;;7.28;4.78;;;;;;;;;;4975671;28;20042;-70
2022/08/17 05:30:33;;;;;;;5.50;4.20;;;;;;;;;;4992817;28;20031;-69
2022/08/17 05:33:01;;;;;;;8.25;4.95;;;;;;;;;;4990641;28;20030;-72
2022/08/17 05:35:30;;;;;;;13.50;5.00;;;;;;;;;;4999286;28;20069;-74
2022/08/17 05:37:56;;;;;;;9.95;4.32;;;;;;;;;;4991865;28;20492;-69
2022/08/17 05:40:24;;;;;;;8.93;4.40;;;;;;;;;;4993019;28;20101;-70
2022/08/17 05:42:51;;;;;;;10.75;4.20;;;;;;;;;;4989515;28;20041;-67
2022/08/17 05:45:21;;;;;;;9.50;4.72;;;;;;;;;;4990355;28;20135;-74
2022/08/17 05:47:47;;;;;;;7.70;4.28;;;;;;;;;;4992270;28;20050;-75
2022/08/17 05:50:20;;;;;;;8.07;4.40;;;;;;;;;;4974584;28;20058;-78
2022/08/17 05:52:55;;;;;;;7.13;4.38;;;;;;;;;;4989046;28;20531;-68
2022/08/17 05:55:39;;;;;;;9.50;3.75;;;;;;;;;;4991602;28;20049;-69
2022/08/17 05:58:15;;;;;;;6.88;4.13;;;;;;;;;;5000411;28;20041;-77
2022/08/17 06:00:49;;;;;;;10.70;4.20;;;;;;;;;;4991473;28;20031;-75
2022/08/17 06:03:34;;;;;;;8.55;4.65;;;;;;;;;;4985513;28;20496;-77
2022/08/17 06:06:03;;;;;;;7.80;3.85;;;;;;;;;;4995001;28;20030;-78
2022/08/17 06:08:33;;;;;;;8.55;4.07;;;;;;;;;;4983876;28;20041;-75
2022/08/17 06:11:10;;;;;;;11.02;4.03;;;;;;;;;;4995365;28;20097;-76
2022/08/17 06:13:48;;;;;;;9.05;4.07;;;;;;;;;;4994082;28;20038;-79
2022/08/17 06:16:19;;;;;;;11.95;4.40;;;;;;;;;;4977237;28;20049;-74
2022/08/17 06:19:04;;;;;;;6.93;4.07;;;;;;;;;;4986996;28;20046;-82
2022/08/17 06:21:33;;;;;;;7.10;3.70;;;;;;;;;;4995295;28;20022;-80
2022/08/17 06:24:04;;;;;;;7.65;3.97;;;;;;;;;;4982822;28;20034;-82
2022/08/17 06:26:32;;;;;;;10.10;3.97;;;;;;;;;;4977141;28;20144;-82
2022/08/17 06:29:01;;;;;;;7.78;4.28;;;;;;;;;;4993300;28;20567;-81
2022/08/17 06:31:35;;;;;;;6.95;3.85;;;;;;;;;;4994633;28;20048;-79
2022/08/17 06:34:03;;;;;;;6.60;4.07;;;;;;;;;;4994419;28;20035;-77
2022/08/17 06:36:35;;;;;;;10.82;4.35;;;;;;;;;;4977184;28;20388;-75
2022/08/17 06:39:20;;;;;;;5.90;4.03;;;;;;;;;;4994679;28;20105;-73
2022/08/17 06:42:06;;;;;;;7.10;4.38;;;;;;;;;;4994687;28;20529;-79
2022/08/17 06:44:46;;;;;;;14.68;4.57;;;;;;;;;;4991678;28;20073;-80
2022/08/17 06:47:28;;;;;;;4.43;3.95;;;;;;;;;;4994645;28;20046;-68
2022/08/17 06:49:58;;;;;;;9.43;4.65;;;;;;;;;;4993889;28;20551;-70
2022/08/17 06:52:27;;;;;;;7.70;4.38;;;;;;;;;;4982285;28;20037;-68
2022/08/17 06:55:11;;;;;;;9.52;4.63;;;;;;;;;;4988374;28;20085;-68
2022/08/17 06:57:41;;;;;;;17.63;4.55;;;;;;;;;;4992170;28;20037;-68
2022/08/17 07:00:12;;;;;;;11.82;4.63;;;;;;;;;;4994446;28;20038;-69
2022/08/17 07:02:49;;;;;;;38.72;6.43;;;;;;;;;;4993844;28;20057;-68
2022/08/17 07:05:17;;;;;;;10.45;4.70;;;;;;;;;;4991010;28;20030;-69
2022/08/17 07:08:03;;;;;;;13.35;4.82;;;;;;;;;;4994680;28;20092;-75
2022/08/17 07:10:37;;;;;;;11.35;4.65;;;;;;;;;;4990579;28;20050;-70
2022/08/17 07:13:22;;;;;;;13.07;4.60;;;;;;;;;;4984570;28;20026;-75
2022/08/17 07:15:49;;;;;;;6.47;4.15;;;;;;;;;;4989883;28;20530;-77
2022/08/17 07:18:15;;;;;;;11.73;4.50;;;;;;;;;;4992091;28;20026;-81
2022/08/17 07:20:44;;;;;;;9.70;4.53;;;;;;;;;;4994040;28;20022;-78
2022/08/17 07:23:31;;;;;;;13.77;5.55;;;;;;;;;;4984211;28;20030;-79
2022/08/17 07:26:04;;;;;;;11.05;5.28;;;;;;;;;;4987476;28;20165;-79
2022/08/17 07:28:31;;;;;;;22.42;6.47;;;;;;;;;;4975753;28;20476;-77
2022/08/17 07:30:57;;;;;;;22.38;6.75;;;;;;;;;;4972262;28;20066;-69
2022/08/17 07:33:25;;;;;;;16.85;5.10;;;;;;;;;;4989767;28;20036;-72
2022/08/17 07:35:51;;;;;;;21.13;6.13;;;;;;;;;;4990929;28;20031;-70
2022/08/17 07:38:20;;;;;;;61.08;9.77;;;;;;;;;;4993485;28;20415;-70
2022/08/17 07:40:48;;;;;;;18.42;5.53;;;;;;;;;;4992363;28;20173;-75
2022/08/17 07:43:16;;;;;;;54.65;8.60;;;;;;;;;;4992488;28;20103;-70
2022/08/17 07:48:43;;;;;;;115.07;15.13;;;;;;;;;;4991762;28;20113;-69
2022/08/17 07:51:21;;;;;;;84.13;14.52;;;;;;;;;;4992826;28;20022;-70
2022/08/17 07:53:47;;;;;;;67.72;10.05;;;;;;;;;;4992200;28;20026;-68
2022/08/17 07:56:35;;;;;;;60.17;10.75;;;;;;;;;;4992910;28;20033;-70
2022/08/17 07:59:15;;;;;;;94.28;12.77;;;;;;;;;;4992321;28;20484;-68
2022/08/17 08:01:44;;;;;;;46.63;8.57;;;;;;;;;;4991968;28;20527;-67
2022/08/17 08:04:36;;;;;;;81.18;12.10;;;;;;;;;;4986757;28;20027;-66
2022/08/17 08:07:06;;;;;;;127.13;16.73;;;;;;;;;;4989422;28;20064;-68
2022/08/17 08:09:33;;;;;;;211.90;24.58;;;;;;;;;;4993883;28;20026;-74
2022/08/17 08:12:00;;;;;;;142.20;17.85;;;;;;;;;;4991634;28;20472;-72
2022/08/17 08:14:28;;;;;;;31.02;8.13;;;;;;;;;;4990510;28;20033;-74
2022/08/17 08:16:59;;;;;;;105.90;13.15;;;;;;;;;;4991069;28;20018;-70
2022/08/17 08:19:26;;;;;;;80.03;10.98;;;;;;;;;;4980423;28;20492;-73
2022/08/17 08:21:55;;;;;;;86.43;12.02;;;;;;;;;;4991945;28;20447;-71
2022/08/17 08:24:42;;;;;;;135.57;17.30;;;;;;;;;;4989257;28;20507;-73
2022/08/17 08:27:11;;;;;;;43.25;6.32;;;;;;;;;;4977685;28;20436;-72
2022/08/17 08:29:51;;;;;;;61.72;9.25;;;;;;;;;;4991321;28;20041;-72
2022/08/17 08:32:36;;;;;;;51.97;8.55;;;;;;;;;;4968046;28;20384;-69
2022/08/17 08:35:07;;;;;;;77.68;10.85;;;;;;;;;;4991691;28;20503;-75
2022/08/17 08:37:48;;;;;;;62.58;10.10;;;;;;;;;;4991382;28;20435;-70
2022/08/17 08:40:33;;;;;;;11.73;4.05;;;;;;;;;;4986752;28;20141;-72
2022/08/17 08:43:07;;;;;;;122.97;15.05;;;;;;;;;;4986266;28;20026;-72
2022/08/17 08:46:09;;;;;;;114.40;17.45;;;;;;;;;;4989269;28;20117;-74
2022/08/17 08:48:47;;;;;;;80.10;12.43;;;;;;;;;;4933156;29;20051;-74
2022/08/17 08:51:17;;;;;;;30.98;6.05;;;;;;;;;;4932853;29;20039;-70
2022/08/17 08:53:52;;;;;;;21.85;4.82;;;;;;;;;;4933306;29;20517;-72
2022/08/17 08:56:50;;;;;;;101.32;14.57;;;;;;;;;;4933491;29;20031;-75
2022/08/17 08:59:16;;;;;;;64.10;9.98;;;;;;;;;;4873086;29;20045;-73
2022/08/17 09:01:48;;;;;;;54.20;8.27;;;;;;;;;;4877251;29;20052;-73
2022/08/17 09:04:34;;;;;;;88.50;14.00;;;;;;;;;;4876938;29;20522;-71
2022/08/17 09:07:09;;;;;;;55.50;8.38;;;;;;;;;;4876996;29;20033;-73
2022/08/17 09:09:42;;;;;;;23.25;6.90;;;;;;;;;;4879782;29;20037;-74
2022/08/17 09:12:10;;;;;;;63.38;9.85;;;;;;;;;;4877087;29;20564;-74
2022/08/17 09:14:38;;;;;;;11.30;4.30;;;;;;;;;;4876164;29;20116;-70
2022/08/17 09:17:21;;;;;;;20.60;4.57;;;;;;;;;;4883984;29;20395;-74
2022/08/17 09:19:49;;;;;;;11.02;4.00;;;;;;;;;;4888981;29;20036;-74
2022/08/17 09:22:23;;;;;;;11.10;4.63;;;;;;;;;;4884034;29;20051;-74
2022/08/17 09:25:20;;;;;;;18.30;4.80;;;;;;;;;;4895701;29;20111;-71
2022/08/17 09:27:57;;;;;;;12.73;4.15;;;;;;;;;;4876693;29;20053;-74
2022/08/17 09:30:25;;;;;;;12.63;4.20;;;;;;;;;;4878015;29;20112;-74
2022/08/17 09:32:56;;;;;;;9.82;4.32;;;;;;;;;;4878645;29;20615;-75
2022/08/17 09:35:33;;;;;;;5.35;3.50;;;;;;;;;;4906217;29;20047;-72
2022/08/17 09:38:11;;;;;;;11.23;4.10;;;;;;;;;;4914364;29;20124;-70
2022/08/17 09:40:48;;;;;;;12.90;4.38;;;;;;;;;;4910648;29;20040;-70
2022/08/17 09:43:27;;;;;;;10.65;4.25;;;;;;;;;;4917962;29;20024;-75
2022/08/17 09:46:02;;;;;;;7.07;4.30;;;;;;;;;;4905804;29;20041;-72
2022/08/17 09:48:35;;;;;;;7.45;4.10;;;;;;;;;;4917480;29;20147;-70
2022/08/17 09:51:01;;;;;;;;;;;;;;;;;;4914879;29;20036;-75
2022/08/17 09:53:27;;;;;;;12.52;4.18;;;;;;;;;;4906124;29;20314;-70
2022/08/17 09:56:11;;;;;;;12.40;4.45;;;;;;;;;;4898053;29;20039;-75
2022/08/17 09:58:55;;;;;;;11.90;4.80;;;;;;;;;;4895879;29;20045;-74
2022/08/17 10:01:21;;;;;;;7.75;3.90;;;;;;;;;;4897592;29;20089;-71
2022/08/17 10:04:03;;;;;;;10.98;4.22;;;;;;;;;;4933437;28;20105;-75
2022/08/17 10:06:36;;;;;;;16.95;5.38;;;;;;;;;;4994878;28;20038;-70
2022/08/17 10:09:14;;;;;;;10.80;5.80;;;;;;;;;;4996567;28;20048;-76
2022/08/17 10:14:33;;;;;;;21.15;5.82;;;;;;;;;;4996328;28;20038;-76
2022/08/17 10:17:02;;;;;;;16.17;4.90;;;;;;;;;;4996431;28;20026;-75
2022/08/17 10:19:35;;;;;;;54.88;9.15;;;;;;;;;;4996286;28;20417;-74
2022/08/17 10:27:41;;;;;;;17.00;5.68;;;;;;;;;;4996277;28;20133;-71
2022/08/17 10:30:10;;;;;;;45.23;5.70;;;;;;;;;;4993621;28;20030;-72
2022/08/17 10:32:48;;;;;;;23.00;5.38;;;;;;;;;;4996070;28;20027;-73
2022/08/17 10:35:24;;;;;;;17.30;4.63;;;;;;;;;;4985834;28;20027;-75
2022/08/17 10:37:53;;;;;;;12.95;4.78;;;;;;;;;;4995476;28;20487;-72
2022/08/17 10:40:26;;;;;;;11.32;4.22;;;;;;;;;;4983625;28;20089;-74
2022/08/17 10:43:09;;;;;;;10.02;4.38;;;;;;;;;;4992635;28;20551;-74
2022/08/17 10:45:35;;;;;;;;;;;;;;;;;;4995760;28;20387;-74
2022/08/17 10:48:21;;;;;;;8.30;3.80;;;;;;;;;;5010714;28;19921;-75
2022/08/17 10:50:59;;;;;;;7.95;4.22;;;;;;;;;;5006769;28;20023;-71
2022/08/17 10:53:45;;;;;;;33.78;6.53;;;;;;;;;;5007465;28;20077;-71
2022/08/17 10:56:16;;;;;;;10.15;4.03;;;;;;;;;;4983461;28;20160;-71
2022/08/17 10:58:54;;;;;;;26.88;6.72;;;;;;;;;;5015112;28;20037;-70
2022/08/17 11:01:43;;;;;;;19.98;6.07;;;;;;;;;;5011922;28;20463;-72
2022/08/17 11:04:20;;;;;;;22.00;5.18;;;;;;;;;;4916459;29;20036;-73
2022/08/17 11:06:52;;;;;;;9.13;4.10;;;;;;;;;;4905260;29;20048;-71
2022/08/17 11:09:38;;;;;;;9.65;4.22;;;;;;;;;;4916525;29;20040;-72
2022/08/17 11:12:14;;;;;;;10.20;4.63;;;;;;;;;;4878738;29;20057;-73
2022/08/17 11:15:02;;;;;;;8.98;4.30;;;;;;;;;;4865348;29;20606;-70
2022/08/17 11:18:04;;;;;;;27.85;6.43;;;;;;;;;;4867482;29;20170;-75
2022/08/17 11:20:40;;;;;;;9.55;4.30;;;;;;;;;;4805302;29;20043;-70
2022/08/17 11:23:44;;;;;;;29.25;6.65;;;;;;;;;;4805305;29;20034;-74
2022/08/17 11:26:45;;;;;;;15.10;4.55;;;;;;;;;;4770972;30;20134;-70
2022/08/17 11:29:37;;;;;;;7.63;3.58;;;;;;;;;;4733793;30;20165;-76
2022/08/17 11:32:12;;;;;;;7.05;4.05;;;;;;;;;;4726857;30;20040;-77
2022/08/17 11:34:41;;;;;;;8.02;3.95;;;;;;;;;;4733642;30;20051;-77
2022/08/17 11:37:15;;;;;;;9.50;4.20;;;;;;;;;;4731693;30;20059;-70
2022/08/17 11:39:41;;;;;;;7.15;4.32;;;;;;;;;;4717798;30;20539;-72
2022/08/17 11:42:25;;;;;;;5.28;4.07;;;;;;;;;;4775769;30;20579;-72
2022/08/17 11:44:58;;;;;;;5.85;3.80;;;;;;;;;;4786951;29;20086;-76
2022/08/17 11:53:37;;;;;;;5.03;3.88;;;;;;;;;;4818640;29;20061;-76
2022/08/17 11:56:08;;;;;;;6.45;3.92;;;;;;;;;;4900523;29;20118;-76
2022/08/17 11:58:39;;;;;;;7.78;4.13;;;;;;;;;;4947384;29;20034;-76
2022/08/17 12:01:28;;;;;;;7.28;4.15;;;;;;;;;;4931682;29;20498;-75
2022/08/17 12:04:14;;;;;;;5.80;3.95;;;;;;;;;;4907256;29;20185;-77
2022/08/17 12:06:40;;;;;;;5.45;4.10;;;;;;;;;;4982495;28;20038;-73
2022/08/17 12:09:09;;;;;;;7.82;4.25;;;;;;;;;;4993117;28;20030;-71
2022/08/17 12:11:44;;;;;;;6.85;3.95;;;;;;;;;;4992555;28;20034;-72
2022/08/17 12:14:13;;;;;;;5.65;4.00;;;;;;;;;;4994260;28;20069;-77
2022/08/17 12:16:41;;;;;;;8.63;3.90;;;;;;;;;;4994161;28;20130;-76
2022/08/17 12:19:15;;;;;;;5.82;3.97;;;;;;;;;;4994012;28;20490;-71
2022/08/17 12:21:56;;;;;;;6.65;3.83;;;;;;;;;;4993077;28;20031;-73
2022/08/17 12:24:34;;;;;;;7.55;3.95;;;;;;;;;;4985993;28;20026;-72
2022/08/17 12:27:03;;;;;;;5.82;3.90;;;;;;;;;;4993801;28;20428;-72
2022/08/17 12:29:30;;;;;;;5.93;3.95;;;;;;;;;;4991894;28;20031;-71
2022/08/17 12:31:56;;;;;;;6.50;3.65;;;;;;;;;;4992366;28;20030;-76
2022/08/17 12:34:25;;;;;;;7.10;4.10;;;;;;;;;;4993798;28;20431;-73
2022/08/17 12:37:00;;;;;;;7.32;4.13;;;;;;;;;;4993468;28;20145;-75
2022/08/17 12:39:26;;;;;;;10.75;4.22;;;;;;;;;;4993807;28;20022;-74
2022/08/17 12:41:55;;;;;;;10.20;4.22;;;;;;;;;;4993300;28;20026;-72
2022/08/17 12:44:23;;;;;;;7.03;3.60;;;;;;;;;;4993516;28;20023;-74
2022/08/17 12:46:49;;;;;;;7.60;3.72;;;;;;;;;;4993498;28;20054;-70
2022/08/17 12:49:25;;;;;;;7.35;4.60;;;;;;;;;;4992935;28;20027;-72
2022/08/17 12:51:55;;;;;;;13.82;4.22;;;;;;;;;;4992409;28;20029;-71
2022/08/17 12:54:23;;;;;;;18.85;4.40;;;;;;;;;;4990122;28;20093;-74
2022/08/17 12:56:49;;;;;;;9.07;3.90;;;;;;;;;;4986209;28;20034;-71
2022/08/17 12:59:17;;;;;;;6.80;4.07;;;;;;;;;;4992254;28;20471;-74
2022/08/17 13:01:44;;;;;;;7.03;3.90;;;;;;;;;;4991073;28;20153;-76
2022/08/17 13:04:12;;;;;;;10.27;4.10;;;;;;;;;;4991073;28;20026;-73
2022/08/17 13:06:45;;;;;;;4.65;3.60;;;;;;;;;;4992101;28;20035;-71
2022/08/17 13:09:11;;;;;;;;;;;;;;;;;;4986752;28;20085;-71
2022/08/17 13:11:45;;;;;;;7.65;3.70;;;;;;;;;;4990948;28;19913;-74
2022/08/17 13:14:11;;;;;;;6.30;4.20;;;;;;;;;;4994610;28;20031;-72
2022/08/17 13:16:40;;;;;;;6.43;3.60;;;;;;;;;;4996769;28;20030;-75
2022/08/17 13:19:06;;;;;;;9.07;4.00;;;;;;;;;;4996515;28;20023;-74
2022/08/17 13:21:33;;;;;;;6.63;4.10;;;;;;;;;;4995605;28;20027;-74
2022/08/17 13:23:59;;;;;;;7.80;3.67;;;;;;;;;;4994339;28;20066;-74
2022/08/17 13:26:36;;;;;;;6.07;3.70;;;;;;;;;;4996374;28;20038;-73
2022/08/17 13:29:05;;;;;;;6.07;3.75;;;;;;;;;;4997337;28;20027;-82
2022/08/17 13:31:35;;;;;;;7.57;3.63;;;;;;;;;;4987036;28;20031;-74
2022/08/17 13:34:11;;;;;;;5.53;3.60;;;;;;;;;;4995491;28;20042;-78
2022/08/17 13:36:37;;;;;;;7.45;4.07;;;;;;;;;;4992671;28;20026;-74
2022/08/17 13:39:11;;;;;;;8.15;3.88;;;;;;;;;;4996589;28;20042;-69
2022/08/17 13:41:38;;;;;;;6.60;3.60;;;;;;;;;;4996546;28;20066;-74
2022/08/17 13:44:25;;;;;;;5.72;3.63;;;;;;;;;;4994704;28;20026;-74
2022/08/17 13:46:52;;;;;;;4.82;3.60;;;;;;;;;;4995240;28;20042;-77
2022/08/17 13:49:19;;;;;;;8.25;3.83;;;;;;;;;;4994360;28;20411;-74
2022/08/17 13:51:45;;;;;;;6.70;3.97;;;;;;;;;;4998854;28;20026;-77
2022/08/17 13:54:29;;;;;;;6.95;3.72;;;;;;;;;;4996344;28;20022;-75
2022/08/17 13:57:03;;;;;;;7.90;3.80;;;;;;;;;;4993749;28;20773;-76
2022/08/17 13:59:41;;;;;;;7.35;3.60;;;;;;;;;;4994528;28;20027;-75
2022/08/17 14:02:08;;;;;;;9.63;4.18;;;;;;;;;;4988048;28;20485;-74
2022/08/17 14:04:34;;;;;;;8.38;3.47;;;;;;;;;;4976673;28;20027;-72
2022/08/17 14:07:23;;;;;;;6.43;3.53;;;;;;;;;;4982372;28;20040;-72
2022/08/17 14:09:58;;;;;;;4.38;3.40;;;;;;;;;;4979627;28;20022;-74
2022/08/17 14:12:26;;;;;;;5.70;3.63;;;;;;;;;;4987378;28;20030;-77
2022/08/17 14:14:53;;;;;;;7.43;4.05;;;;;;;;;;4993624;28;20029;-75
2022/08/17 14:17:21;;;;;;;6.50;3.47;;;;;;;;;;4992728;28;20037;-74
2022/08/17 14:19:48;;;;;;;11.43;3.90;;;;;;;;;;4987547;28;20018;-74
2022/08/17 14:22:40;;;;;;;6.68;3.67;;;;;;;;;;4992189;28;20034;-74
2022/08/17 14:25:06;;;;;;;5.27;3.40;;;;;;;;;;4984504;28;20081;-72
2022/08/17 14:27:32;;;;;;;6.38;3.75;;;;;;;;;;4992974;28;20519;-73
2022/08/17 14:30:02;;;;;;;4.50;3.72;;;;;;;;;;4989947;28;20488;-80
2022/08/17 14:32:29;;;;;;;7.07;3.92;;;;;;;;;;4976132;28;20496;-79
2022/08/17 14:34:56;;;;;;;5.78;3.45;;;;;;;;;;4985273;28;20026;-72
2022/08/17 14:37:24;;;;;;;7.55;3.75;;;;;;;;;;4994124;28;20172;-73
2022/08/17 14:39:50;;;;;;;5.63;3.40;;;;;;;;;;4993353;28;20023;-71
2022/08/17 14:42:16;;;;;;;5.32;3.67;;;;;;;;;;4995786;28;20101;-76
2022/08/17 14:44:42;;;;;;;8.88;3.83;;;;;;;;;;4995474;28;20022;-74
2022/08/17 14:47:13;;;;;;;7.78;3.88;;;;;;;;;;4994992;28;20125;-76
2022/08/17 14:49:39;;;;;;;6.32;3.50;;;;;;;;;;4994307;28;20110;-69
2022/08/17 14:52:05;;;;;;;6.38;4.25;;;;;;;;;;4991977;28;20511;-69
2022/08/17 14:54:32;;;;;;;4.63;3.28;;;;;;;;;;4976567;28;20033;-72
2022/08/17 14:56:58;;;;;;;4.70;3.53;;;;;;;;;;4991852;28;20165;-70
2022/08/17 14:59:25;;;;;;;7.68;3.33;;;;;;;;;;4990762;28;20030;-69
2022/08/17 15:01:51;;;;;;;8.30;3.78;;;;;;;;;;4992453;28;20026;-70
2022/08/17 15:04:17;;;;;;;4.57;3.63;;;;;;;;;;4992933;28;20034;-73
2022/08/17 15:06:47;;;;;;;7.18;3.35;;;;;;;;;;4993996;28;20033;-71
2022/08/17 15:09:13;;;;;;;4.80;3.67;;;;;;;;;;4992292;28;20026;-75
2022/08/17 15:11:39;;;;;;;5.72;3.58;;;;;;;;;;4991728;28;20543;-70
2022/08/17 15:14:06;;;;;;;6.18;3.65;;;;;;;;;;4994851;28;20496;-71
2022/08/17 15:16:34;;;;;;;9.73;3.70;;;;;;;;;;4990715;28;20066;-74
2022/08/17 15:19:09;;;;;;;8.05;4.10;;;;;;;;;;4990596;28;20027;-70
2022/08/17 15:21:36;;;;;;;8.60;3.72;;;;;;;;;;4993884;28;20038;-71
2022/08/17 15:24:03;;;;;;;6.43;3.60;;;;;;;;;;4990390;28;20029;-74
2022/08/17 15:26:29;;;;;;;5.80;3.90;;;;;;;;;;4993255;28;20030;-78
2022/08/17 15:28:56;;;;;;;6.30;3.50;;;;;;;;;;4994163;28;20033;-77
2022/08/17 15:31:22;;;;;;;8.13;3.97;;;;;;;;;;4974163;28;20068;-70
2022/08/17 15:33:49;;;;;;;5.50;3.63;;;;;;;;;;4992004;28;20040;-73
2022/08/17 15:36:15;;;;;;;9.10;3.83;;;;;;;;;;4992914;28;20072;-70